Time;durP1;ratioP1;P1;durP2;ratioP2;P2;SDS_P1;SDS_P2;PMS_P1;PMS_P2;Temp;Humidity;BMP_temperature;BMP_pressure;BME280_temperature;BME280_humidity;BME280_pressure;Samples;Min_cycle;Max_cycle;Signal;HPM_P1;HPM_P2
2023/05/02 00:02:03;;;;;;;7.20;3.90;;;;;;;1.88;100.00;101528.67;105687;1257;75311;-50
2023/05/02 00:04:30;;;;;;;8.80;6.00;;;;;;;1.81;100.00;101560.76;105706;1254;61780;-51
2023/05/02 00:06:58;;;;;;;13.80;7.00;;;;;;;1.74;100.00;101579.59;105731;1253;61596;-50
2023/05/02 00:09:25;;;;;;;10.80;5.00;;;;;;;1.70;100.00;101602.60;105685;1254;74464;-51
2023/05/02 00:11:52;;;;;;;5.50;3.60;;;;;;;1.65;100.00;101624.89;105749;1254;67001;-51
2023/05/02 00:14:19;;;;;;;8.20;4.30;;;;;;;1.61;100.00;101645.30;105861;1256;75187;-50
2023/05/02 00:16:46;;;;;;;7.00;3.80;;;;;;;1.60;100.00;101670.31;105710;1252;62181;-51
2023/05/02 00:19:13;;;;;;;17.40;4.90;;;;;;;1.62;100.00;101696.57;105724;1257;61496;-50
2023/05/02 00:21:40;;;;;;;8.00;3.60;;;;;;;1.63;100.00;101723.88;105894;1256;75523;-50
2023/05/02 00:24:07;;;;;;;5.10;3.50;;;;;;;1.66;100.00;101741.19;105768;1254;65555;-50
2023/05/02 00:26:34;;;;;;;9.40;3.30;;;;;;;1.65;100.00;101756.64;105707;1253;74131;-51
2023/05/02 00:29:01;;;;;;;13.60;4.20;;;;;;;1.62;100.00;101769.42;105721;1254;61623;-50
2023/05/02 00:31:29;;;;;;;4.70;3.40;;;;;;;1.56;100.00;101776.86;105880;1256;61373;-50
2023/05/02 00:33:56;;;;;;;5.60;3.40;;;;;;;1.50;100.00;101787.33;105752;1257;75528;-52
2023/05/02 00:36:23;;;;;;;9.30;3.60;;;;;;;1.47;100.00;101798.79;105738;1253;65988;-52
2023/05/02 00:38:50;;;;;;;6.50;3.40;;;;;;;1.46;100.00;101803.69;105442;1254;74615;-52
2023/05/02 00:41:17;;;;;;;7.40;3.30;;;;;;;1.43;100.00;101807.33;105723;1254;60941;-54
2023/05/02 00:43:44;;;;;;;13.70;3.70;;;;;;;1.43;100.00;101815.49;105911;1255;62672;-57
2023/05/02 00:46:12;;;;;;;11.70;3.80;;;;;;;1.45;100.00;101817.06;105668;1259;75610;-55
2023/05/02 00:48:39;;;;;;;7.20;3.80;;;;;;;1.50;100.00;101825.10;105727;1258;66492;-49
2023/05/02 00:51:12;;;;;;;8.30;3.20;;;;;;;1.54;100.00;101827.64;105723;1254;74414;-50
2023/05/02 00:53:40;;;;;;;8.00;3.60;;;;;;;1.51;100.00;101836.19;105686;1255;64781;-50
2023/05/02 00:56:08;;;;;;;6.70;3.60;;;;;;;1.47;100.00;101837.73;105675;1257;61799;-50
2023/05/02 00:58:37;;;;;;;7.60;3.30;;;;;;;1.42;100.00;101841.30;105682;1252;75173;-50
2023/05/02 01:01:13;;;;;;;5.50;3.30;;;;;;;1.40;100.00;101840.73;105708;1254;67125;-51
2023/05/02 01:03:50;;;;;;;7.20;3.30;;;;;;;1.39;100.00;101839.48;105706;1259;74166;-50
2023/05/02 01:06:56;;;;;;;7.50;3.70;;;;;;;1.40;100.00;101842.06;105657;1254;63495;-50
2023/05/02 01:09:32;;;;;;;7.50;3.20;;;;;;;1.43;100.00;101839.29;105782;1257;61611;-50
2023/05/02 01:12:24;;;;;;;6.60;3.40;;;;;;;1.45;100.00;101839.02;105777;1254;74851;-50
2023/05/02 01:14:56;;;;;;;13.30;4.20;;;;;;;1.44;100.00;101838.14;105703;1252;66520;-49
2023/05/02 01:17:27;;;;;;;8.90;3.60;;;;;;;1.43;100.00;101839.81;105758;1254;73822;-49
2023/05/02 01:19:56;;;;;;;8.50;3.70;;;;;;;1.53;100.00;101838.16;105883;1256;63379;-49
2023/05/02 01:22:26;;;;;;;6.00;4.00;;;;;;;1.69;100.00;101840.19;105729;1258;62683;-50
2023/05/02 01:24:57;;;;;;;6.70;3.40;;;;;;;1.86;100.00;101840.48;105734;1254;74584;-52
2023/05/02 01:27:30;;;;;;;9.30;3.40;;;;;;;1.92;100.00;101840.23;105776;1258;66158;-57
2023/05/02 01:29:57;;;;;;;8.50;3.30;;;;;;;1.94;100.00;101839.45;105739;1257;75145;-52
2023/05/02 01:32:25;;;;;;;6.10;3.50;;;;;;;1.92;100.00;101843.98;105717;1255;61618;-52
2023/05/02 01:34:52;;;;;;;9.00;3.40;;;;;;;1.90;100.00;101842.55;105729;1258;61528;-52
2023/05/02 01:37:19;;;;;;;5.90;3.90;;;;;;;1.86;100.00;101845.07;105680;1259;75939;-52
2023/05/02 01:39:46;;;;;;;10.20;3.90;;;;;;;1.81;100.00;101847.27;105659;1254;65493;-51
2023/05/02 01:42:13;;;;;;;18.20;3.90;;;;;;;1.76;100.00;101850.48;105753;1259;75512;-50
2023/05/02 01:44:40;;;;;;;6.50;3.50;;;;;;;1.73;100.00;101850.70;105726;1254;63048;-50
2023/05/02 01:47:07;;;;;;;7.00;3.30;;;;;;;1.69;100.00;101850.08;105703;1258;61217;-50
2023/05/02 01:49:34;;;;;;;9.30;3.30;;;;;;;1.65;100.00;101856.73;105664;1254;75193;-51
2023/05/02 01:52:04;;;;;;;6.10;3.90;;;;;;;1.61;100.00;101851.09;105718;1254;66308;-50
2023/05/02 01:54:30;;;;;;;5.40;3.60;;;;;;;1.61;100.00;101855.34;105852;1253;75275;-51
2023/05/02 01:56:58;;;;;;;5.10;3.40;;;;;;;1.61;100.00;101854.64;105687;1254;63775;-50
2023/05/02 01:59:25;;;;;;;4.70;3.30;;;;;;;1.58;100.00;101851.49;105658;1258;63050;-50
2023/05/02 02:01:52;;;;;;;3.90;3.30;;;;;;;1.65;100.00;101850.73;105802;1254;74678;-50
2023/05/02 02:04:20;;;;;;;9.70;3.40;;;;;;;1.79;100.00;101846.52;105676;1254;67091;-50
2023/05/02 02:06:50;;;;;;;20.20;3.40;;;;;;;1.93;100.00;101844.15;105798;1258;74113;-51
2023/05/02 02:09:18;;;;;;;14.30;3.30;;;;;;;1.98;100.00;101843.86;105751;1257;61929;-50
2023/05/02 02:11:52;;;;;;;4.50;3.50;;;;;;;1.96;100.00;101843.96;105845;1255;61673;-50
2023/05/02 02:14:21;;;;;;;3.90;3.10;;;;;;;1.90;100.00;101842.38;105861;1254;75366;-50
2023/05/02 02:16:49;;;;;;;10.00;3.40;;;;;;;1.84;100.00;101838.20;105852;1257;66156;-51
2023/05/02 02:19:16;;;;;;;10.80;3.20;;;;;;;1.79;100.00;101836.98;105873;1254;75165;-51
2023/05/02 02:21:43;;;;;;;3.70;2.90;;;;;;;1.73;100.00;101833.54;105647;1255;63715;-50
2023/05/02 02:24:10;;;;;;;11.10;3.80;;;;;;;1.66;100.00;101835.45;105714;1259;62070;-50
2023/05/02 02:26:37;;;;;;;5.60;3.40;;;;;;;1.58;100.00;101831.41;105667;1259;76170;-50
2023/05/02 02:29:04;;;;;;;7.30;3.20;;;;;;;1.50;100.00;101831.57;105763;1258;65094;-50
2023/05/02 02:31:32;;;;;;;7.50;3.60;;;;;;;1.42;100.00;101833.65;105728;1254;75215;-50
2023/05/02 02:34:00;;;;;;;8.00;2.80;;;;;;;1.35;100.00;101836.42;105724;1254;63612;-51
2023/05/02 02:36:30;;;;;;;4.70;2.90;;;;;;;1.30;100.00;101841.83;105908;1254;62870;-51
2023/05/02 02:39:24;;;;;;;4.70;3.70;;;;;;;1.27;100.00;101842.71;105785;1257;76325;-51
2023/05/02 02:42:08;;;;;;;8.60;3.50;;;;;;;1.22;100.00;101843.71;105792;1254;67067;-50
2023/05/02 02:45:04;;;;;;;7.80;3.80;;;;;;;1.23;100.00;101844.43;105723;1254;74123;-50
2023/05/02 02:47:43;;;;;;;6.40;3.40;;;;;;;1.29;100.00;101849.79;105765;1254;63164;-49
2023/05/02 02:50:24;;;;;;;6.40;2.80;;;;;;;1.33;100.00;101849.09;105700;1259;61462;-49
2023/05/02 02:52:54;;;;;;;6.10;3.30;;;;;;;1.35;100.00;101848.84;105726;1254;75248;-50
2023/05/02 02:55:43;;;;;;;4.90;2.90;;;;;;;1.37;100.00;101847.86;105807;1254;66405;-50
2023/05/02 02:58:13;;;;;;;6.30;3.20;;;;;;;1.43;100.00;101850.86;105750;1254;74447;-50
2023/05/02 03:00:40;;;;;;;13.70;3.70;;;;;;;1.46;100.00;101855.90;105841;1259;63568;-51
2023/05/02 03:03:07;;;;;;;5.20;3.50;;;;;;;1.47;100.00;101857.66;105823;1256;63330;-51
2023/05/02 03:05:35;;;;;;;8.40;3.10;;;;;;;1.51;100.00;101862.06;105711;1254;74301;-51
2023/05/02 03:08:02;;;;;;;10.60;3.80;;;;;;;1.55;100.00;101868.70;105662;1254;66527;-51
2023/05/02 03:10:29;;;;;;;7.80;3.00;;;;;;;1.59;100.00;101867.50;105671;1254;74969;-51
2023/05/02 03:12:56;;;;;;;7.00;3.00;;;;;;;1.63;100.00;101868.88;105766;1257;62702;-51
2023/05/02 03:15:30;;;;;;;11.00;3.00;;;;;;;1.68;100.00;101871.46;105654;1254;62570;-50
2023/05/02 03:17:58;;;;;;;5.10;2.80;;;;;;;1.69;100.00;101871.84;105844;1257;76552;-51
2023/05/02 03:20:25;;;;;;;11.50;3.10;;;;;;;1.72;100.00;101879.61;105862;1257;66556;-51
2023/05/02 03:22:52;;;;;;;5.10;3.60;;;;;;;1.75;100.00;101875.64;105774;1255;74149;-51
2023/05/02 03:25:19;;;;;;;11.60;3.80;;;;;;;1.80;100.00;101877.03;105654;1258;63082;-51
2023/05/02 03:27:47;;;;;;;7.60;3.20;;;;;;;1.86;100.00;101881.37;105797;1252;63066;-50
2023/05/02 03:30:14;;;;;;;7.40;3.70;;;;;;;1.94;100.00;101884.25;105775;1259;76730;-50
2023/05/02 03:32:41;;;;;;;10.90;4.00;;;;;;;2.03;100.00;101886.80;105672;1254;67082;-51
2023/05/02 03:35:09;;;;;;;8.50;4.40;;;;;;;2.15;100.00;101891.84;105817;1254;73674;-51
2023/05/02 03:37:37;;;;;;;11.50;3.90;;;;;;;2.30;100.00;101898.90;105694;1259;62254;-51
2023/05/02 03:40:05;;;;;;;6.80;4.00;;;;;;;2.51;100.00;101901.92;105682;1259;61507;-51
2023/05/02 03:42:40;;;;;;;10.80;3.80;;;;;;;2.80;100.00;101905.39;105859;1257;75604;-51
2023/05/02 03:45:12;;;;;;;7.00;4.10;;;;;;;3.14;100.00;101907.79;105831;1254;66451;-52
2023/05/02 03:47:40;;;;;;;10.50;4.20;;;;;;;3.46;100.00;101915.55;105762;1254;74369;-52
2023/05/02 03:50:08;;;;;;;10.60;4.60;;;;;;;3.77;100.00;101925.96;105694;1259;62861;-52
2023/05/02 03:52:35;;;;;;;8.90;4.50;;;;;;;4.10;100.00;101942.40;105736;1259;62891;-52
2023/05/02 03:55:03;;;;;;;11.90;4.70;;;;;;;4.46;100.00;101961.13;105669;1252;75384;-52
2023/05/02 03:57:30;;;;;;;7.40;3.50;;;;;;;4.85;100.00;101979.75;105805;1253;64987;-54
2023/05/02 03:59:57;;;;;;;6.50;3.60;;;;;;;5.25;100.00;102012.03;105741;1259;73476;-54
2023/05/02 04:02:26;;;;;;;12.20;3.90;;;;;;;5.63;100.00;102041.50;105608;1254;60929;-52
2023/05/02 04:04:54;;;;;;;5.30;3.30;;;;;;;5.95;100.00;102069.95;105839;1254;62809;-53
2023/05/02 04:07:24;;;;;;;10.40;3.00;;;;;;;6.25;100.00;102080.17;105881;1254;76780;-54
2023/05/02 04:10:01;;;;;;;5.80;3.10;;;;;;;6.56;100.00;102024.31;105860;1254;65661;-52
2023/05/02 04:12:33;;;;;;;4.60;3.00;;;;;;;6.83;100.00;101809.39;105837;1254;74060;-52
2023/05/02 04:15:01;;;;;;;11.10;3.40;;;;;;;7.08;100.00;101522.15;105704;1258;61053;-52
2023/05/02 04:17:29;;;;;;;7.00;2.90;;;;;;;7.31;100.00;101370.30;105908;1254;63007;-52
2023/05/02 04:19:56;;;;;;;4.40;2.60;;;;;;;7.52;100.00;101396.59;105733;1253;76327;-52
2023/05/02 04:22:25;;;;;;;5.60;2.80;;;;;;;7.71;100.00;101486.80;105775;1257;67599;-52
2023/05/02 04:24:56;;;;;;;4.60;2.80;;;;;;;7.87;100.00;101562.23;105648;1257;73448;-53
2023/05/02 04:27:24;;;;;;;4.40;2.50;;;;;;;8.06;100.00;101603.84;105839;1254;61222;-52
2023/05/02 04:29:55;;;;;;;9.40;3.00;;;;;;;8.28;100.00;101630.39;105692;1254;60817;-52
2023/05/02 04:32:22;;;;;;;6.30;2.80;;;;;;;8.49;100.00;101652.09;105658;1257;74683;-54
2023/05/02 04:34:50;;;;;;;4.40;2.60;;;;;;;8.67;100.00;101672.05;105841;1254;66555;-52
2023/05/02 04:37:18;;;;;;;13.80;3.50;;;;;;;8.90;100.00;101687.58;105684;1254;75277;-52
2023/05/02 04:39:48;;;;;;;4.50;2.40;;;;;;;9.10;100.00;101701.17;105808;1254;63328;-53
2023/05/02 04:42:18;;;;;;;7.30;2.30;;;;;;;9.32;97.49;101699.77;105784;1259;63023;-53
2023/05/02 04:44:53;;;;;;;7.50;1.90;;;;;;;9.46;72.12;101652.13;105848;1254;74991;-52
2023/05/02 04:47:20;;;;;;;5.00;2.00;;;;;;;9.51;68.56;101675.08;105747;1256;67169;-51
2023/05/02 04:49:48;;;;;;;6.10;2.20;;;;;;;9.56;67.22;101694.23;105816;1254;74452;-52
2023/05/02 04:52:15;;;;;;;10.50;2.10;;;;;;;9.69;69.31;101725.84;105702;1254;62849;-52
2023/05/02 04:54:43;;;;;;;5.00;2.00;;;;;;;9.83;66.79;101695.39;105831;1259;62493;-52
2023/05/02 04:57:10;;;;;;;8.30;1.80;;;;;;;9.93;64.55;101689.23;105703;1258;76258;-52
2023/05/02 04:59:42;;;;;;;5.60;1.90;;;;;;;10.08;63.76;101695.32;105894;1256;65869;-53
2023/05/02 05:02:11;;;;;;;6.30;2.10;;;;;;;10.23;62.79;101696.05;105792;1254;75824;-53
2023/05/02 05:04:39;;;;;;;12.00;2.00;;;;;;;10.45;61.72;101677.33;105818;1253;62151;-52
2023/05/02 05:07:06;;;;;;;6.50;1.90;;;;;;;10.62;60.12;101652.14;105839;1254;61500;-54
2023/05/02 05:09:33;;;;;;;4.80;1.80;;;;;;;10.73;58.33;101615.55;105760;1258;75173;-53
2023/05/02 05:12:00;;;;;;;5.60;1.80;;;;;;;10.71;57.88;101634.88;105794;1258;65953;-52
2023/05/02 05:14:30;;;;;;;5.70;2.40;;;;;;;10.72;57.55;101645.41;105691;1257;75192;-52
2023/05/02 05:16:58;;;;;;;6.70;1.70;;;;;;;10.79;56.77;101626.60;105712;1254;62635;-52
2023/05/02 05:19:25;;;;;;;8.10;1.70;;;;;;;10.89;56.89;101651.28;105719;1259;63093;-52
2023/05/02 05:21:53;;;;;;;3.40;1.80;;;;;;;11.03;56.31;101625.36;105879;1256;75372;-52
2023/05/02 05:24:20;;;;;;;7.40;2.10;;;;;;;11.18;55.90;101623.60;105827;1254;67873;-52
2023/05/02 05:26:48;;;;;;;7.20;2.00;;;;;;;11.27;55.16;101605.10;105926;1256;75491;-53
2023/05/02 05:29:17;;;;;;;5.40;1.70;;;;;;;11.28;54.49;101582.46;105661;1254;61214;-53
2023/05/02 05:31:44;;;;;;;4.40;1.90;;;;;;;11.31;54.72;101615.63;105786;1259;61631;-53
2023/05/02 05:34:14;;;;;;;3.30;1.50;;;;;;;11.39;54.84;101637.38;105819;1257;76551;-53
2023/05/02 05:36:42;;;;;;;5.50;1.90;;;;;;;11.37;54.16;101605.92;105906;1254;66487;-56
2023/05/02 05:39:09;;;;;;;5.60;1.80;;;;;;;11.32;54.68;101656.05;105715;1257;74097;-54
2023/05/02 05:41:38;;;;;;;4.10;1.90;;;;;;;11.32;54.91;101679.20;105737;1254;63106;-56
2023/05/02 05:44:08;;;;;;;5.00;1.80;;;;;;;11.32;55.19;101698.73;105845;1254;62866;-53
2023/05/02 05:46:35;;;;;;;3.30;2.10;;;;;;;11.34;55.61;101717.40;105854;1257;76420;-55
2023/05/02 05:49:03;;;;;;;3.50;1.60;;;;;;;11.43;55.29;101686.28;105709;1254;66519;-55
2023/05/02 05:51:31;;;;;;;5.40;1.90;;;;;;;11.52;55.19;101688.52;105772;1253;75493;-55
2023/05/02 05:53:59;;;;;;;5.70;2.00;;;;;;;11.58;54.72;101664.44;105869;1254;60745;-53
2023/05/02 05:56:26;;;;;;;8.70;2.00;;;;;;;11.60;54.17;101637.65;105874;1255;62700;-53
2023/05/02 05:59:03;;;;;;;4.10;1.80;;;;;;;11.71;54.51;101670.45;105683;1259;75805;-53
2023/05/02 06:01:31;;;;;;;2.20;1.80;;;;;;;11.75;54.83;101698.81;105849;1254;66236;-53
2023/05/02 06:03:58;;;;;;;9.30;2.20;;;;;;;11.82;55.10;101712.79;105705;1254;75220;-53
2023/05/02 06:06:26;;;;;;;11.00;2.20;;;;;;;11.92;54.09;101653.41;105648;1257;61926;-53
2023/05/02 06:08:53;;;;;;;3.00;1.60;;;;;;;11.99;53.83;101647.34;105712;1254;62589;-53
2023/05/02 06:11:21;;;;;;;4.10;1.90;;;;;;;12.09;53.19;101616.34;105702;1255;76426;-53
2023/05/02 06:13:48;;;;;;;11.70;1.50;;;;;;;12.17;53.47;101646.56;105714;1254;66509;-52
2023/05/02 06:16:16;;;;;;;5.10;1.80;;;;;;;12.27;53.01;101618.13;105707;1259;73256;-52
2023/05/02 06:18:45;;;;;;;9.50;1.90;;;;;;;12.28;52.90;101624.35;105942;1256;62543;-53
2023/05/02 06:21:13;;;;;;;6.40;1.30;;;;;;;12.24;53.22;101656.90;105921;1257;62103;-53
2023/05/02 06:23:39;;;;;;;4.90;2.10;;;;;;;12.24;52.57;101611.74;105820;1256;75988;-53
2023/05/02 06:26:07;;;;;;;5.10;1.90;;;;;;;12.21;51.95;101584.23;105609;1257;65834;-53
2023/05/02 06:28:34;;;;;;;9.00;1.90;;;;;;;12.24;52.71;101651.89;105830;1254;73705;-53
2023/05/02 06:31:04;;;;;;;6.80;1.90;;;;;;;12.27;52.12;101616.39;105742;1254;62363;-53
2023/05/02 06:33:32;;;;;;;4.40;1.90;;;;;;;12.37;52.25;101626.70;105865;1257;61687;-52
2023/05/02 06:36:00;;;;;;;16.10;2.30;;;;;;;12.53;51.87;101606.52;105898;1257;75321;-51
2023/05/02 06:38:28;;;;;;;5.80;2.00;;;;;;;12.74;51.53;101581.72;105802;1254;66005;-51
2023/05/02 06:40:55;;;;;;;6.30;1.60;;;;;;;12.94;50.55;101508.94;105857;1253;74951;-52
2023/05/02 06:43:22;;;;;;;3.60;1.60;;;;;;;13.06;50.06;101495.64;105807;1253;62337;-54
2023/05/02 06:45:53;;;;;;;6.00;1.70;;;;;;;13.19;49.48;101464.45;105910;1257;62823;-53
2023/05/02 06:48:21;;;;;;;5.10;1.50;;;;;;;13.30;49.19;101443.85;105893;1256;76256;-53
2023/05/02 06:50:48;;;;;;;8.30;1.90;;;;;;;13.40;49.51;101486.70;105831;1253;67288;-52
2023/05/02 06:53:15;;;;;;;2.50;1.50;;;;;;;13.53;48.01;101375.77;105876;1258;73579;-53
2023/05/02 06:55:43;;;;;;;5.50;1.70;;;;;;;13.51;47.93;101370.75;105819;1258;62481;-52
2023/05/02 06:58:10;;;;;;;11.50;1.60;;;;;;;13.67;47.15;101335.98;105705;1259;61248;-53
2023/05/02 07:00:37;;;;;;;4.70;1.30;;;;;;;13.83;46.29;101269.09;105923;1259;74960;-52
2023/05/02 07:03:05;;;;;;;8.30;1.40;;;;;;;13.95;46.13;101272.33;105864;1256;66684;-52
2023/05/02 07:05:32;;;;;;;2.40;1.50;;;;;;;14.09;46.43;101298.95;105850;1254;74160;-52
2023/05/02 07:07:59;;;;;;;2.60;1.70;;;;;;;14.18;46.33;101304.50;105799;1254;61417;-52
2023/05/02 07:10:26;;;;;;;5.60;1.60;;;;;;;14.19;46.55;101331.92;105786;1259;61731;-52
2023/05/02 07:12:53;;;;;;;8.40;1.90;;;;;;;14.25;45.42;101244.46;105795;1258;76318;-52
2023/05/02 07:15:20;;;;;;;7.00;1.40;;;;;;;14.31;43.66;101089.84;105777;1254;67381;-52
2023/05/02 07:17:48;;;;;;;9.30;1.40;;;;;;;14.30;43.66;101096.28;105845;1256;74876;-53
2023/05/02 07:20:15;;;;;;;2.20;1.20;;;;;;;14.44;42.71;101032.21;105803;1253;63891;-54
2023/05/02 07:22:42;;;;;;;2.50;1.10;;;;;;;14.63;43.08;101062.14;105838;1257;61783;-55
2023/05/02 07:25:09;;;;;;;4.80;1.40;;;;;;;14.87;42.34;101015.16;105550;1256;76285;-52
2023/05/02 07:27:37;;;;;;;5.80;1.50;;;;;;;15.12;42.29;101006.14;105778;1255;66309;-53
2023/05/02 07:30:05;;;;;;;6.90;1.30;;;;;;;15.31;41.67;100963.00;105763;1253;73924;-55
2023/05/02 07:32:32;;;;;;;1.90;1.00;;;;;;;15.37;40.40;100855.67;105879;1256;62652;-54
2023/05/02 07:35:00;;;;;;;7.10;1.10;;;;;;;15.38;40.76;100895.30;105763;1258;61435;-54
2023/05/02 07:37:31;;;;;;;6.70;1.20;;;;;;;15.46;39.95;100826.34;105893;1254;75136;-53
2023/05/02 07:40:00;;;;;;;2.30;1.00;;;;;;;15.55;39.57;100802.23;105844;1259;67157;-53
2023/05/02 07:42:31;;;;;;;7.40;1.20;;;;;;;15.76;39.77;100833.89;105849;1257;74881;-51
2023/05/02 07:44:58;;;;;;;2.90;1.00;;;;;;;15.93;38.65;100746.16;105778;1254;61829;-52
2023/05/02 07:47:25;;;;;;;3.30;0.50;;;;;;;16.04;36.00;100481.36;105896;1256;62093;-52
2023/05/02 07:49:53;;;;;;;8.00;1.00;;;;;;;16.01;33.86;100263.80;105910;1256;74410;-54
2023/05/02 07:52:20;;;;;;;3.50;0.80;;;;;;;15.88;32.86;100157.66;105804;1257;66935;-53
2023/05/02 07:54:48;;;;;;;4.50;0.90;;;;;;;15.88;33.56;100201.50;105854;1257;75166;-53
2023/05/02 07:57:16;;;;;;;6.60;0.90;;;;;;;16.03;34.49;100318.17;105809;1254;61267;-53
2023/05/02 07:59:43;;;;;;;4.70;0.90;;;;;;;16.27;34.00;100303.73;105896;1257;62005;-53
2023/05/02 08:02:12;;;;;;;1.60;0.90;;;;;;;16.42;34.97;100392.55;105862;1257;76274;-53
2023/05/02 08:04:40;;;;;;;3.10;0.60;;;;;;;16.66;34.28;100352.14;105843;1260;66274;-53
2023/05/02 08:07:07;;;;;;;7.40;0.80;;;;;;;16.88;32.49;100172.35;105816;1254;74065;-53
2023/05/02 08:09:34;;;;;;;2.20;0.80;;;;;;;16.91;31.73;100078.95;105851;1254;62584;-53
2023/05/02 08:12:02;;;;;;;2.00;0.80;;;;;;;16.90;31.71;100085.83;105810;1258;62716;-53
2023/05/02 08:14:29;;;;;;;6.30;0.80;;;;;;;16.91;31.94;100117.64;105882;1254;75264;-52
2023/05/02 08:16:57;;;;;;;4.70;0.90;;;;;;;16.97;32.00;100136.02;105854;1256;66786;-53
2023/05/02 08:19:24;;;;;;;3.20;0.70;;;;;;;16.91;31.75;100118.20;105858;1254;75130;-53
2023/05/02 08:21:54;;;;;;;6.00;0.80;;;;;;;16.88;32.33;100155.45;105834;1254;61458;-54
2023/05/02 08:24:22;;;;;;;5.20;0.80;;;;;;;16.72;32.20;100139.67;105762;1259;61835;-53
2023/05/02 08:26:49;;;;;;;1.00;0.50;;;;;;;16.50;32.61;100203.60;105827;1256;75188;-53
2023/05/02 08:29:16;;;;;;;1.10;0.80;;;;;;;16.45;33.28;100279.27;105774;1254;66987;-53
2023/05/02 08:31:43;;;;;;;8.80;0.80;;;;;;;16.63;33.21;100296.36;105761;1256;74398;-53
2023/05/02 08:34:10;;;;;;;8.20;0.90;;;;;;;16.81;33.20;100290.65;105719;1260;61154;-51
2023/05/02 08:36:38;;;;;;;5.80;1.10;;;;;;;16.92;32.94;100268.90;105845;1254;62533;-52
2023/05/02 08:39:06;;;;;;;5.80;1.00;;;;;;;17.14;33.03;100269.95;105845;1257;75581;-52
2023/05/02 08:41:34;;;;;;;7.20;1.00;;;;;;;17.23;32.28;100169.41;105855;1253;67132;-52
2023/05/02 08:44:01;;;;;;;6.90;1.10;;;;;;;17.20;31.42;100096.49;105779;1259;74442;-52
2023/05/02 08:46:29;;;;;;;7.20;0.80;;;;;;;17.25;30.48;99983.29;105909;1257;62054;-52
2023/05/02 08:48:57;;;;;;;2.70;1.20;;;;;;;17.25;31.18;100024.79;105661;1260;61605;-52
2023/05/02 08:51:27;;;;;;;3.10;1.00;;;;;;;17.42;31.49;100069.04;105735;1259;76569;-52
2023/05/02 08:53:55;;;;;;;1.80;0.60;;;;;;;17.64;29.52;99867.08;105744;1257;67403;-52
2023/05/02 08:56:22;;;;;;;3.20;0.80;;;;;;;17.54;28.78;99762.14;105651;1257;75200;-53
2023/05/02 08:58:49;;;;;;;1.10;0.50;;;;;;;17.39;29.77;99837.98;105718;1255;62019;-53
2023/05/02 09:01:20;;;;;;;1.90;0.90;;;;;;;17.55;31.47;99989.02;105875;1258;62509;-53
2023/05/02 09:03:47;;;;;;;5.10;0.70;;;;;;;17.84;31.78;100068.58;105803;1257;76284;-53
2023/05/02 09:06:16;;;;;;;4.90;1.00;;;;;;;17.87;31.30;100028.58;105839;1260;67527;-53
2023/05/02 09:08:45;;;;;;;5.40;0.80;;;;;;;17.58;31.60;100045.86;105914;1258;74225;-53
2023/05/02 09:11:12;;;;;;;4.50;1.30;;;;;;;17.72;31.63;100080.35;105782;1255;62955;-53
2023/05/02 09:13:41;;;;;;;3.60;0.60;;;;;;;17.95;32.02;100116.86;105852;1256;62025;-53
2023/05/02 09:16:11;;;;;;;2.70;1.10;;;;;;;18.17;30.96;100021.17;105780;1254;76361;-53
2023/05/02 09:18:44;;;;;;;1.40;0.60;;;;;;;18.28;29.94;99907.93;105733;1260;66226;-54
2023/05/02 09:21:13;;;;;;;4.30;0.80;;;;;;;18.28;31.26;100016.35;105782;1257;74952;-54
2023/05/02 09:23:45;;;;;;;3.20;0.80;;;;;;;18.47;30.47;99986.27;105695;1256;61842;-53
2023/05/02 09:26:20;;;;;;;4.80;0.80;;;;;;;18.77;30.27;99941.55;105779;1257;61454;-53
2023/05/02 09:28:52;;;;;;;4.60;1.00;;;;;;;19.00;29.98;99926.55;105880;1259;75740;-54
2023/05/02 09:31:29;;;;;;;2.30;0.50;;;;;;;19.05;29.39;99855.27;105764;1254;66765;-54
2023/05/02 09:34:16;;;;;;;2.20;0.70;;;;;;;18.91;28.13;99732.52;105818;1257;75137;-59
2023/05/02 09:36:45;;;;;;;2.30;0.80;;;;;;;18.48;29.48;99819.25;105890;1266;61776;-55
2023/05/02 09:39:14;;;;;;;1.70;0.60;;;;;;;18.41;30.48;99926.02;105711;1255;61841;-54
2023/05/02 09:41:42;;;;;;;6.40;0.70;;;;;;;18.48;29.65;99865.86;105740;1255;75223;-56
2023/05/02 09:44:11;;;;;;;1.60;0.90;;;;;;;18.58;29.28;99820.52;105741;1254;66622;-53
2023/05/02 09:46:42;;;;;;;2.30;0.70;;;;;;;18.64;28.42;99745.38;105866;1256;74424;-55
2023/05/02 09:49:09;;;;;;;6.00;0.90;;;;;;;18.62;29.29;99808.40;105912;1255;61822;-52
2023/05/02 09:51:36;;;;;;;2.10;0.70;;;;;;;18.83;29.65;99849.63;105724;1257;63140;-52
2023/05/02 09:54:03;;;;;;;5.30;1.10;;;;;;;19.08;28.92;99822.73;105720;1259;76273;-52
2023/05/02 09:56:31;;;;;;;2.00;1.10;;;;;;;19.15;28.30;99747.61;105687;1259;65200;-52
2023/05/02 09:59:14;;;;;;;2.60;0.80;;;;;;;19.09;28.03;99706.58;105710;1257;75420;-53
2023/05/02 10:01:41;;;;;;;3.80;1.00;;;;;;;19.23;28.70;99766.13;105865;1260;61683;-52
2023/05/02 10:04:15;;;;;;;5.00;0.80;;;;;;;19.32;28.71;99744.73;105953;1257;60801;-53
2023/05/02 10:06:43;;;;;;;0.60;0.60;;;;;;;19.32;27.93;99688.63;105770;1254;75664;-51
2023/05/02 10:09:11;;;;;;;3.00;0.80;;;;;;;19.07;28.72;99744.77;105765;1259;66628;-52
2023/05/02 10:11:44;;;;;;;3.50;0.80;;;;;;;19.00;28.44;99751.38;105879;1254;74669;-52
2023/05/02 10:14:11;;;;;;;5.00;1.20;;;;;;;18.98;29.26;99805.67;105796;1260;60928;-52
2023/05/02 10:17:00;;;;;;;9.50;0.90;;;;;;;19.12;28.64;99762.33;105723;1258;62567;-53
2023/05/02 10:19:37;;;;;;;5.60;0.60;;;;;;;19.32;27.94;99696.84;105883;1256;74304;-52
2023/05/02 10:22:05;;;;;;;9.60;1.10;;;;;;;19.52;29.08;99775.27;105884;1255;66910;-52
2023/05/02 10:24:32;;;;;;;0.60;0.60;;;;;;;19.79;28.71;99775.25;105415;1259;411631;-52
2023/05/02 10:29:31;;;;;;;3.70;0.60;;;;;;;19.69;26.56;99547.83;102880;1289;600313;-56
2023/05/02 10:31:59;;;;;;;2.60;0.70;;;;;;;19.23;27.06;99591.98;105656;1259;62842;-56
2023/05/02 10:34:26;;;;;;;0.70;0.40;;;;;;;18.99;27.41;99614.89;105344;1253;62548;-52
2023/05/02 10:36:55;;;;;;;1.00;0.90;;;;;;;19.00;27.23;99599.45;105574;1259;73930;-54
2023/05/02 10:39:23;;;;;;;7.10;0.80;;;;;;;19.05;27.26;99596.16;105720;1259;65914;-53
2023/05/02 10:41:51;;;;;;;0.70;0.60;;;;;;;19.15;27.14;99603.70;105671;1254;75172;-53
2023/05/02 10:44:34;;;;;;;1.90;0.90;;;;;;;19.12;27.64;99631.71;105679;1250;306985;-53
2023/05/02 10:47:20;;;;;;;0.90;0.80;;;;;;;18.95;28.19;99719.33;105873;1257;62173;-53
2023/05/02 10:49:54;;;;;;;1.20;1.00;;;;;;;18.84;27.58;99666.73;105906;1250;73660;-53
2023/05/02 10:52:25;;;;;;;2.70;0.90;;;;;;;18.97;27.78;99669.73;105882;1250;67865;-54
2023/05/02 10:55:22;;;;;;;4.90;0.80;;;;;;;19.12;27.23;99632.93;105857;1253;74022;-54
2023/05/02 10:58:07;;;;;;;;;;;;;;;19.25;27.38;99650.92;105777;1259;62425;-53
2023/05/02 11:00:34;;;;;;;1.60;0.70;;;;;;;19.42;27.86;99677.78;105854;1250;62834;-53
2023/05/02 11:03:02;;;;;;;3.60;0.70;;;;;;;19.61;28.44;99703.29;105709;1250;74130;-52
2023/05/02 11:05:30;;;;;;;3.90;0.80;;;;;;;19.94;28.23;99709.81;105913;1256;65997;-53
2023/05/02 11:08:16;;;;;;;4.70;1.00;;;;;;;20.12;27.69;99648.70;105842;1250;75174;-53
2023/05/02 11:10:46;;;;;;;3.20;0.90;;;;;;;20.17;28.40;99677.75;105899;1257;61630;-53
2023/05/02 11:13:14;;;;;;;0.90;0.60;;;;;;;20.28;27.09;99593.58;105845;1250;63125;-53
2023/05/02 11:15:41;;;;;;;2.80;1.10;;;;;;;20.23;27.09;99579.23;105911;1250;75531;-52
2023/05/02 11:18:12;;;;;;;5.30;0.90;;;;;;;20.13;27.48;99611.34;105849;1258;67502;-52
2023/05/02 11:20:40;;;;;;;0.90;0.60;;;;;;;20.11;27.27;99596.94;105729;1256;73940;-52
2023/05/02 11:23:20;;;;;;;2.90;0.80;;;;;;;20.13;26.08;99492.80;105727;1253;61699;-54
2023/05/02 11:25:48;;;;;;;0.60;0.60;;;;;;;20.17;27.06;99566.21;105705;1259;61785;-54
2023/05/02 11:28:37;;;;;;;2.20;0.70;;;;;;;20.23;26.64;99537.57;105710;1253;74771;-52
2023/05/02 11:31:05;;;;;;;2.70;0.90;;;;;;;20.22;26.37;99493.33;105639;1259;67064;-52
2023/05/02 11:33:33;;;;;;;0.60;0.50;;;;;;;20.31;26.95;99555.67;105743;1253;75230;-52